createdAt,value
2022-12-06T00:00:38.027Z,24.1
2022-12-06T00:02:37.754Z,26.3
2022-12-06T00:04:37.451Z,24.3
2022-12-06T00:06:40.342Z,24.4
2022-12-06T00:08:38.148Z,24.9
2022-12-06T00:10:36.660Z,21.9
2022-12-06T00:12:36.233Z,24.7
2022-12-06T00:14:35.590Z,27.3
2022-12-06T00:16:35.888Z,25.1
2022-12-06T00:20:34.171Z,23.1
2022-12-06T00:22:33.775Z,24.3
2022-12-06T00:24:34.070Z,23.2
2022-12-06T00:26:36.455Z,23.2
2022-12-06T00:28:33.252Z,23.5
2022-12-06T00:30:32.141Z,26.2
2022-12-06T00:32:32.122Z,23.2
2022-12-06T00:34:31.896Z,22.2
2022-12-06T00:36:32.710Z,24.1
2022-12-06T00:38:31.513Z,21.8
2022-12-06T00:40:30.167Z,21.5
2022-12-06T00:42:29.851Z,20.5
2022-12-06T00:44:29.469Z,22.3
2022-12-06T00:48:28.765Z,20.8
2022-12-06T00:50:28.239Z,20.5
2022-12-06T00:52:27.842Z,18.9
2022-12-06T00:54:27.591Z,21.7
2022-12-06T00:56:27.676Z,20.8
2022-12-06T00:58:27.276Z,18.9
2022-12-06T01:00:26.881Z,19.9
2022-12-06T01:02:25.953Z,19.1
2022-12-06T01:04:25.530Z,18.2
2022-12-06T01:06:27.889Z,20.0
2022-12-06T01:08:24.783Z,20.1
2022-12-06T01:10:24.813Z,19.2
2022-12-06T01:12:23.845Z,19.1
2022-12-06T01:14:24.128Z,19.2
2022-12-06T01:16:26.710Z,18.5
2022-12-06T01:18:22.966Z,19.3
2022-12-06T01:22:22.143Z,22.4
2022-12-06T01:26:23.453Z,17.6
2022-12-06T01:28:20.859Z,18.3
2022-12-06T01:30:20.338Z,19.3
2022-12-06T01:32:20.043Z,19.9
2022-12-06T01:34:19.469Z,19.2
2022-12-06T01:36:21.669Z,20.9
2022-12-06T01:38:18.755Z,20.5
2022-12-06T01:42:18.818Z,19.5
2022-12-06T01:46:25.396Z,20.7
2022-12-06T01:48:17.209Z,20.0
2022-12-06T01:50:21.606Z,19.7
2022-12-06T01:52:17.105Z,21.3
2022-12-06T01:54:18.613Z,21.3
2022-12-06T01:56:15.808Z,22.2
2022-12-06T01:58:19.187Z,22.2
2022-12-06T02:00:14.805Z,25.9
2022-12-06T02:02:14.583Z,21.2
2022-12-06T02:04:15.538Z,25.0
2022-12-06T02:06:15.695Z,24.1
2022-12-06T02:08:14.343Z,22.0
2022-12-06T02:10:12.951Z,21.4
2022-12-06T02:12:14.019Z,21.6
2022-12-06T02:14:14.734Z,25.9
2022-12-06T02:16:24.791Z,22.5
2022-12-06T02:18:18.956Z,22.2
2022-12-06T02:20:21.513Z,21.9
2022-12-06T02:22:15.910Z,25.4
2022-12-06T02:24:29.765Z,21.0
2022-12-06T02:26:16.908Z,22.0
2022-12-06T02:28:29.245Z,23.4
2022-12-06T02:30:17.572Z,22.5
2022-12-06T02:32:11.224Z,22.1
2022-12-06T02:34:14.516Z,22.3
2022-12-06T02:36:15.804Z,21.8
2022-12-06T02:38:15.311Z,21.5
2022-12-06T02:40:12.987Z,24.3
2022-12-06T02:46:08.181Z,23.2
2022-12-06T02:48:08.356Z,21.7
2022-12-06T02:50:10.419Z,21.0
2022-12-06T02:52:05.132Z,21.5
2022-12-06T02:54:07.886Z,21.7
2022-12-06T02:56:04.917Z,20.8
2022-12-06T02:58:03.371Z,22.7
2022-12-06T03:00:22.573Z,20.7
2022-12-06T03:04:15.563Z,18.7
2022-12-06T03:06:20.168Z,21.1
2022-12-06T03:08:10.715Z,20.5
2022-12-06T03:10:13.508Z,19.0
2022-12-06T03:12:05.851Z,18.2
2022-12-06T03:14:04.095Z,19.1
2022-12-06T03:16:06.045Z,18.5
2022-12-06T03:18:07.454Z,18.1
2022-12-06T03:20:06.388Z,20.6
2022-12-06T03:26:01.396Z,18.9
2022-12-06T03:28:00.453Z,17.9
2022-12-06T03:30:00.937Z,19.2
2022-12-06T03:32:00.541Z,21.0
2022-12-06T03:34:01.704Z,18.0
2022-12-06T03:35:58.283Z,19.2
2022-12-06T03:38:03.675Z,19.3
2022-12-06T03:40:02.158Z,19.2
2022-12-06T03:41:57.142Z,20.1
2022-12-06T03:43:55.179Z,20.2
2022-12-06T03:46:02.172Z,17.4
2022-12-06T03:47:59.505Z,18.5
2022-12-06T03:49:58.223Z,19.4
2022-12-06T03:51:53.347Z,17.5
2022-12-06T03:55:51.952Z,17.4
2022-12-06T03:57:52.119Z,17.7
2022-12-06T04:01:51.299Z,18.2
2022-12-06T04:03:50.634Z,17.5
2022-12-06T04:05:49.944Z,18.6
2022-12-06T04:07:49.654Z,18.0
2022-12-06T04:09:52.284Z,17.3
2022-12-06T04:11:48.819Z,16.1
2022-12-06T04:13:48.693Z,19.7
2022-12-06T04:17:57.842Z,18.1
2022-12-06T04:19:51.810Z,19.0
2022-12-06T04:21:56.831Z,18.9
2022-12-06T04:23:50.359Z,16.6
2022-12-06T04:25:46.809Z,19.1
2022-12-06T04:27:55.649Z,15.7
2022-12-06T04:29:55.124Z,15.7
2022-12-06T04:31:54.741Z,17.1
2022-12-06T04:33:54.262Z,16.7
2022-12-06T04:35:53.911Z,16.8
2022-12-06T04:37:53.511Z,18.3
2022-12-06T04:39:43.915Z,18.1
2022-12-06T04:41:52.996Z,16.9
2022-12-06T04:45:42.738Z,19.0
2022-12-06T04:47:42.073Z,20.6
2022-12-06T04:49:41.322Z,16.3
2022-12-06T04:51:41.079Z,18.2
2022-12-06T04:53:40.576Z,16.7
2022-12-06T04:55:44.618Z,17.9
2022-12-06T04:57:39.710Z,16.5
2022-12-06T04:59:41.643Z,16.9
2022-12-06T05:01:38.957Z,17.0
2022-12-06T05:03:43.972Z,17.1
2022-12-06T05:05:38.883Z,17.7
2022-12-06T05:07:38.551Z,16.5
2022-12-06T05:09:38.209Z,16.6
2022-12-06T05:11:36.976Z,20.2
2022-12-06T05:13:36.580Z,18.7
2022-12-06T05:17:35.776Z,18.0
2022-12-06T05:19:35.318Z,20.3
2022-12-06T05:21:34.942Z,16.4
2022-12-06T05:23:35.199Z,21.6
2022-12-06T05:25:34.320Z,17.7
2022-12-06T05:27:36.137Z,21.5
2022-12-06T05:29:33.832Z,21.1
2022-12-06T05:31:33.466Z,20.4
2022-12-06T05:33:33.132Z,22.2
2022-12-06T05:35:32.250Z,20.5
2022-12-06T05:37:31.780Z,21.2
2022-12-06T05:39:31.403Z,19.1
2022-12-06T05:41:31.190Z,20.9
2022-12-06T05:43:31.213Z,32.0
2022-12-06T05:45:30.294Z,21.3
2022-12-06T05:47:30.021Z,20.7
2022-12-06T05:49:29.390Z,18.5
2022-12-06T05:53:29.462Z,19.1
2022-12-06T05:57:27.779Z,20.9
2022-12-06T05:59:27.870Z,18.6
2022-12-06T06:01:26.979Z,19.1
2022-12-06T06:03:26.710Z,20.0
2022-12-06T06:05:26.229Z,18.5
2022-12-06T06:07:25.722Z,20.4
2022-12-06T06:09:26.479Z,19.9
2022-12-06T06:11:25.102Z,18.3
2022-12-06T06:13:25.434Z,20.1
2022-12-06T06:15:24.616Z,25.2
2022-12-06T06:17:24.769Z,27.7
2022-12-06T06:19:23.514Z,24.9
2022-12-06T06:21:23.132Z,26.0
2022-12-06T06:23:23.513Z,25.3
2022-12-06T06:25:22.108Z,21.3
2022-12-06T06:27:22.202Z,28.4
2022-12-06T06:29:21.393Z,24.5
2022-12-06T06:31:21.414Z,23.8
2022-12-06T06:33:20.470Z,22.7
2022-12-06T06:35:20.489Z,25.2
2022-12-06T06:37:20.201Z,26.2
2022-12-06T06:39:19.706Z,23.7
2022-12-06T06:41:18.985Z,24.2
2022-12-06T06:43:19.461Z,23.2
2022-12-06T06:45:18.161Z,23.9
2022-12-06T06:47:17.764Z,26.6
2022-12-06T06:49:17.839Z,24.5
2022-12-06T06:51:16.895Z,25.7
2022-12-06T06:53:17.084Z,21.6
2022-12-06T06:55:16.198Z,22.1
2022-12-06T06:57:18.033Z,23.8
2022-12-06T06:59:15.804Z,21.4
2022-12-06T07:01:17.825Z,24.9
2022-12-06T07:07:19.388Z,26.2
2022-12-06T07:09:13.379Z,28.1
2022-12-06T07:11:14.276Z,27.1
2022-12-06T07:13:12.436Z,29.1
2022-12-06T07:15:12.103Z,29.3
2022-12-06T07:17:11.620Z,27.5
2022-12-06T07:19:11.819Z,32.5
2022-12-06T07:21:13.522Z,26.7
2022-12-06T07:23:10.868Z,28.1
2022-12-06T07:25:11.159Z,29.1
2022-12-06T07:27:09.843Z,31.1
2022-12-06T07:29:09.336Z,32.7
2022-12-06T07:31:11.420Z,32.2
2022-12-06T07:33:08.350Z,32.2
2022-12-06T07:35:08.641Z,29.5
2022-12-06T07:37:07.652Z,33.0
2022-12-06T07:39:13.041Z,33.3
2022-12-06T07:41:19.046Z,40.8
2022-12-06T07:43:18.562Z,30.7
2022-12-06T07:45:07.918Z,30.8
2022-12-06T07:47:05.516Z,32.5
2022-12-06T07:49:06.006Z,33.3
2022-12-06T07:51:04.841Z,31.2
2022-12-06T07:53:04.310Z,29.9
2022-12-06T07:55:06.950Z,29.4
2022-12-06T07:57:03.458Z,28.7
2022-12-06T07:59:03.410Z,28.1
2022-12-06T08:03:03.272Z,27.0
2022-12-06T08:05:02.342Z,29.6
2022-12-06T08:07:02.043Z,27.7
2022-12-06T08:11:01.362Z,29.9
2022-12-06T08:13:02.737Z,25.8
2022-12-06T08:15:00.215Z,26.6
2022-12-06T08:16:59.488Z,28.5
2022-12-06T08:18:59.185Z,27.6
2022-12-06T08:20:58.772Z,27.9
2022-12-06T08:22:58.353Z,27.6
2022-12-06T08:24:58.189Z,29.1
2022-12-06T08:26:59.222Z,26.2
2022-12-06T08:29:00.274Z,28.2
2022-12-06T08:31:02.864Z,30.4
2022-12-06T08:32:56.500Z,29.8
2022-12-06T08:34:55.916Z,33.4
2022-12-06T08:37:00.258Z,30.5
2022-12-06T08:38:55.722Z,29.6
2022-12-06T08:40:54.638Z,28.0
2022-12-06T08:42:54.221Z,32.2
2022-12-06T08:44:53.870Z,29.6
2022-12-06T08:46:55.386Z,30.0
2022-12-06T08:48:53.432Z,28.4
2022-12-06T08:50:52.961Z,28.7
2022-12-06T08:52:52.805Z,28.6
2022-12-06T08:54:52.075Z,34.8
2022-12-06T08:56:52.103Z,30.4
2022-12-06T08:58:53.013Z,31.0
2022-12-06T09:00:50.753Z,31.5
2022-12-06T09:02:50.244Z,29.0
2022-12-06T09:04:50.284Z,31.5
2022-12-06T09:06:49.705Z,29.1
2022-12-06T09:08:49.242Z,30.5
2022-12-06T09:10:48.892Z,32.4
2022-12-06T09:12:48.672Z,27.8
2022-12-06T09:14:48.477Z,25.1
2022-12-06T09:16:48.428Z,30.7
2022-12-06T09:18:48.308Z,24.8
2022-12-06T09:20:46.742Z,25.6
2022-12-06T09:22:46.406Z,30.6
2022-12-06T09:24:45.987Z,38.6
2022-12-06T09:26:45.806Z,26.9
2022-12-06T09:28:48.637Z,25.2
2022-12-06T09:30:44.877Z,24.3
2022-12-06T09:32:44.611Z,23.3
2022-12-06T09:36:49.106Z,25.7
2022-12-06T09:38:47.474Z,23.7
2022-12-06T09:40:58.751Z,24.1
2022-12-06T09:42:57.389Z,24.6
2022-12-06T09:44:59.953Z,26.7
2022-12-06T09:46:58.045Z,24.4
2022-12-06T09:48:54.131Z,23.9
2022-12-06T09:50:51.426Z,21.0
2022-12-06T09:52:59.326Z,22.8
2022-12-06T09:55:00.227Z,21.5
2022-12-06T09:56:46.154Z,19.3
2022-12-06T09:58:52.936Z,20.3
2022-12-06T10:00:43.916Z,20.9
2022-12-06T10:02:58.629Z,21.2
2022-12-06T10:04:54.514Z,21.1
2022-12-06T10:06:44.180Z,18.5
2022-12-06T10:08:54.732Z,17.5
2022-12-06T10:10:50.437Z,17.5
2022-12-06T10:12:54.537Z,13.7
2022-12-06T10:14:54.704Z,16.2
2022-12-06T10:16:46.275Z,16.2
2022-12-06T10:18:53.106Z,14.5
2022-12-06T10:20:43.995Z,15.0
2022-12-06T10:22:46.934Z,12.7
2022-12-06T10:26:44.692Z,12.4
2022-12-06T10:28:42.866Z,14.0
2022-12-06T10:30:39.398Z,14.9
2022-12-06T10:32:49.620Z,15.2
2022-12-06T10:34:49.064Z,14.9
2022-12-06T10:36:41.375Z,16.0
2022-12-06T10:38:39.197Z,12.9
2022-12-06T10:40:45.132Z,14.3
2022-12-06T10:42:36.463Z,10.9
2022-12-06T10:46:45.374Z,13.9
2022-12-06T10:48:37.415Z,12.3
2022-12-06T10:50:32.542Z,15.4
2022-12-06T10:52:37.558Z,12.5
2022-12-06T10:54:35.362Z,13.6
2022-12-06T10:56:35.365Z,15.9
2022-12-06T10:58:35.512Z,14.7
2022-12-06T11:00:30.561Z,11.9
2022-12-06T11:02:34.837Z,11.0
2022-12-06T11:04:32.570Z,14.4
2022-12-06T11:06:31.486Z,13.7
2022-12-06T11:08:31.534Z,11.2
2022-12-06T11:10:28.477Z,11.4
2022-12-06T11:12:31.612Z,12.1
2022-12-06T11:14:29.973Z,11.9
2022-12-06T11:16:30.541Z,13.4
2022-12-06T11:18:28.277Z,12.8
2022-12-06T11:20:27.206Z,11.1
2022-12-06T11:22:33.294Z,11.4
2022-12-06T11:24:29.830Z,11.6
2022-12-06T11:26:33.030Z,13.5
2022-12-06T11:28:35.606Z,15.4
2022-12-06T11:32:21.489Z,10.6
2022-12-06T11:36:22.986Z,12.8
2022-12-06T11:38:21.060Z,11.8
2022-12-06T11:40:26.336Z,11.8
2022-12-06T11:42:24.741Z,10.5
2022-12-06T11:44:24.759Z,11.9
2022-12-06T11:46:20.975Z,17.5
2022-12-06T11:48:21.876Z,12.0
2022-12-06T11:50:19.827Z,11.8
2022-12-06T11:52:25.070Z,8.8
2022-12-06T11:54:23.767Z,10.4
2022-12-06T11:56:22.929Z,10.8
2022-12-06T11:58:26.193Z,8.8
2022-12-06T12:00:19.549Z,8.2
2022-12-06T12:02:30.379Z,10.9
2022-12-06T12:04:26.061Z,12.7
2022-12-06T12:06:20.553Z,8.0
2022-12-06T12:08:17.206Z,7.2
2022-12-06T12:10:26.679Z,9.0
2022-12-06T12:12:17.665Z,6.8
2022-12-06T12:14:17.118Z,7.3
2022-12-06T12:16:18.250Z,8.3
2022-12-06T12:18:21.950Z,7.6
2022-12-06T12:20:20.324Z,9.1
2022-12-06T12:22:20.211Z,10.8
2022-12-06T12:26:14.313Z,7.5
2022-12-06T12:28:23.461Z,10.9
2022-12-06T12:32:10.976Z,10.5
2022-12-06T12:36:16.710Z,10.2
2022-12-06T12:38:15.928Z,11.0
2022-12-06T12:40:20.838Z,11.7
2022-12-06T12:42:27.176Z,19.4
2022-12-06T12:44:36.888Z,10.8
2022-12-06T12:46:19.660Z,10.6
2022-12-06T12:48:20.549Z,11.8
2022-12-06T12:50:19.215Z,10.0
2022-12-06T12:52:26.165Z,8.2
2022-12-06T12:54:19.629Z,11.1
2022-12-06T12:56:10.721Z,8.4
2022-12-06T12:58:09.932Z,5.9
2022-12-06T13:00:06.596Z,5.9
2022-12-06T13:02:17.010Z,6.8
2022-12-06T13:04:12.909Z,6.1
2022-12-06T13:06:05.344Z,7.5
2022-12-06T13:12:05.770Z,8.2
2022-12-06T13:14:03.954Z,6.4
